Flight Track Log - Related Links

Times and Time Zones

All times are in EDT time to prevent confusion due to time zone crossing. See the UAL403 flight status page for this flight to view local times or setup timezone preferences in your user account.

Time Position Orientation Groundspeed Altitude Reporting Facility
EDT Latitude Longitude Course Direction KTS MPH feet Rate Location/Type
Sun 08:40:06 AM 38.9333 -77.5000 270° West 161 185 1,600  Level Potomac TRACON
Sun 08:41:07 AM 38.9333 -77.5833 270° West 220 253 3,200 2,478 Climbing Potomac TRACON
Sun 08:42:00 AM 38.8792 -77.8293 260° West  Level FlightAware Approximate
Sun 08:42:24 AM 38.9036 -77.6775 248° West 255 293 7,300  Level Washington Center
Sun 08:43:00 AM 38.8802 -77.9572 293° West  Level FlightAware Approximate
Sun 08:43:25 AM 38.8894 -77.7678 259° West 255 293 10,300  Level Washington Center
Sun 08:44:00 AM 38.9125 -78.0833 288° West  Level FlightAware Approximate
Sun 08:44:24 AM 38.8794 -77.8661 263° West 270 311 11,700  Level Washington Center
Sun 08:45:00 AM 38.9500 -78.2058 270° West  Level FlightAware Approximate
Sun 08:45:24 AM 38.8878 -77.9731 276° West 296 341 14,500  Level Washington Center
Sun 08:46:24 AM 38.9169 -78.0728 291° West 296 341 16,600 2,000 Climbing Washington Center
Sun 08:47:24 AM 38.9481 -78.1808 290° West 316 364 18,500 1,636 Climbing Washington Center
Sun 08:48:25 AM 38.9644 -78.2961 280° West 321 369 19,900 1,650 Climbing Washington Center
Sun 08:49:24 AM 38.9656 -78.4217 271° West 340 391 21,800 1,650 Climbing Washington Center
Sun 08:50:25 AM 38.9689 -78.5472 272° West 359 413 23,200 1,339 Climbing Washington Center
Sun 08:51:25 AM 38.9783 -78.6703 276° West 371 427 24,500 1,250 Climbing Washington Center
Sun 08:52:25 AM 38.9811 -78.7986 272° West 371 427 25,700 1,261 Climbing Washington Center
Sun 08:53:24 AM 38.9814 -78.9456 270° West 364 419 27,000 1,210 Climbing Washington Center
Sun 08:54:24 AM 38.9839 -79.0767 271° West 371 427 28,100 750 Climbing Washington Center
Sun 08:55:24 AM 38.9919 -79.2239 274° West 382 440 28,500 700 Climbing Washington Center
Sun 08:56:24 AM 38.9939 -79.3656 271° West 404 465 29,500 1,339 Climbing Washington Center
Sun 08:57:25 AM 38.9958 -79.4964 271° West 409 471 31,200 1,600 Climbing Washington Center
Sun 08:58:24 AM 39.0000 -79.6250 272° West 395 455 32,700 2,269 Climbing Washington Center
Sun 08:59:24 AM 39.0022 -79.7481 271° West 370 426 35,700 985 Climbing Washington Center
Sun 09:01:45 AM 39.0350 -79.9817 280° West 316 364 36,000 148 Climbing Indianapolis Center
Sun 09:02:47 AM 39.0842 -80.0950 299° West 318 366 36,200 488 Climbing Indianapolis Center
Sun 09:03:48 AM 39.1122 -80.1978 289° West 309 356 37,000 393 Climbing Indianapolis Center
Sun 09:04:49 AM 39.1356 -80.2967 287° West 295 339 37,000  Level Indianapolis Center
Sun 09:05:51 AM 39.1628 -80.3975 289° West 297 342 37,000 98 Level Indianapolis Center
Sun 09:06:52 AM 39.1900 -80.4997 289° West 301 346 37,200 293 Climbing Indianapolis Center
Sun 09:07:54 AM 39.2156 -80.6008 288° West 299 344 37,600 341 Climbing Indianapolis Center
Sun 09:08:55 AM 39.2419 -80.7011 289° West 295 339 37,900 197 Climbing Indianapolis Center
Sun 09:09:56 AM 39.2692 -80.8031 289° West 300 345 38,000 49 Climbing Indianapolis Center
Sun 09:10:58 AM 39.3019 -80.9267 289° West 302 348 38,000  Level Indianapolis Center
Sun 09:11:59 AM 39.3272 -81.0289 288° West 302 348 38,000  Level Indianapolis Center
Sun 09:13:01 AM 39.3542 -81.1319 289° West 304 350 38,000  Level Indianapolis Center
Sun 09:14:02 AM 39.3803 -81.2353 288° West 303 349 38,000  Level Indianapolis Center
Sun 09:15:04 AM 39.4069 -81.3389 288° West 303 349 38,000  Level Indianapolis Center
Sun 09:16:05 AM 39.4339 -81.4428 289° West 305 351 38,000  Level Indianapolis Center
Sun 09:17:07 AM 39.4603 -81.5469 288° West 306 352 38,000  Level Indianapolis Center
Sun 09:18:08 AM 39.4864 -81.6511 288° West 305 351 38,000  Level Indianapolis Center
Sun 09:19:10 AM 39.5133 -81.7567 288° West 309 356 38,000  Level Indianapolis Center
Sun 09:20:11 AM 39.5439 -81.8825 288° West 307 353 38,000  Level Indianapolis Center
Sun 09:21:13 AM 39.5697 -81.9872 288° West 306 352 38,000  Level Indianapolis Center
Sun 09:22:15 AM 39.5958 -82.0931 288° West 308 354 38,000  Level Indianapolis Center
Sun 09:23:16 AM 39.6208 -82.1958 288° West 309 356 38,000  Level Indianapolis Center
Sun 09:24:18 AM 39.6472 -82.3017 288° West 306 352 38,000  Level Indianapolis Center
Sun 09:25:19 AM 39.6731 -82.4083 287° West 306 352 38,000 -49 Level Indianapolis Center
Sun 09:26:21 AM 39.7036 -82.5333 288° West 308 354 37,900  Descending Indianapolis Center
Sun 09:27:23 AM 39.7289 -82.6411 287° West 309 356 38,000  Climbing Indianapolis Center
Sun 09:28:24 AM 39.7550 -82.7489 288° West 310 357 37,900  Descending Indianapolis Center
Sun 09:29:26 AM 39.7817 -82.8572 288° West 311 358 38,000 48 Climbing Indianapolis Center
Sun 09:30:28 AM 39.8069 -82.9661 287° West 312 359 38,000  Level Indianapolis Center
Sun 09:31:30 AM 39.8325 -83.0742 287° West 312 359 38,000 -49 Level Indianapolis Center
Sun 09:32:31 AM 39.8586 -83.1833 287° West 313 360 37,900 -49 Descending Indianapolis Center
Sun 09:33:33 AM 39.8847 -83.2922 287° West 314 361 37,900 48 Level Indianapolis Center
Sun 09:34:35 AM 39.9078 -83.3994 286° West 313 360 38,000 48 Climbing Indianapolis Center
Sun 09:35:37 AM 39.9397 -83.5300 288° West 313 360 38,000 -49 Level Indianapolis Center
Sun 09:36:38 AM 39.9625 -83.6336 286° West 312 359 37,900 -49 Descending Indianapolis Center
Sun 09:37:40 AM 39.9883 -83.7431 287° West 315 362 37,900 48 Level Indianapolis Center
Sun 09:38:42 AM 40.0128 -83.8522 286° West 313 360 38,000  Climbing Indianapolis Center
Sun 09:39:44 AM 40.0389 -83.9622 287° West 315 362 37,900  Descending Indianapolis Center
Sun 09:40:45 AM 40.0675 -84.0914 286° West 315 362 38,000 49 Climbing Indianapolis Center
Sun 09:41:47 AM 40.0933 -84.2033 287° West 318 366 38,000  Level Indianapolis Center
Sun 09:42:49 AM 40.1192 -84.3147 287° West 318 366 38,000 -48 Level Indianapolis Center
Sun 09:43:51 AM 40.1436 -84.4256 286° West 316 364 37,900  Descending Indianapolis Center
Sun 09:44:53 AM 40.1697 -84.5392 287° West 323 372 38,000 48 Climbing Indianapolis Center
Sun 09:45:55 AM 40.1936 -84.6525 285° West 321 369 38,000 -49 Level Indianapolis Center
Sun 09:46:56 AM 40.2181 -84.7650 286° West 319 367 37,900 -49 Descending Indianapolis Center
Sun 09:47:58 AM 40.2431 -84.8792 286° West 324 373 37,900 48 Level Indianapolis Center
Sun 09:49:00 AM 40.2686 -84.9922 287° West 323 372 38,000 48 Climbing Indianapolis Center
Sun 09:50:02 AM 40.2961 -85.1258 285° West 324 373 38,000  Level Indianapolis Center
Sun 09:51:04 AM 40.3211 -85.2400 286° West 325 374 38,000 -48 Level Indianapolis Center
Sun 09:52:06 AM 40.3444 -85.3564 285° West 326 375 37,900  Descending Indianapolis Center
Sun 09:53:08 AM 40.3686 -85.4697 286° West 324 373 38,000 50 Climbing Indianapolis Center
Sun 09:54:05 AM 40.3894 -85.5642 286° West 325 374 38,000  Level Chicago Center
Sun 09:55:07 AM 40.4175 -85.7025 285° West 327 376 38,000  Level Chicago Center
Sun 09:56:08 AM 40.4422 -85.8169 286° West 328 377 38,000  Level Chicago Center
Sun 09:57:10 AM 40.4661 -85.9328 285° West 330 380 38,000  Level Chicago Center
Sun 09:58:11 AM 40.4908 -86.0483 286° West 329 379 38,000  Level Chicago Center
Sun 09:59:12 AM 40.5139 -86.1658 285° West 332 382 38,000  Level Chicago Center
Sun 10:00:14 AM 40.5378 -86.2825 285° West 333 383 38,000  Level Chicago Center
Sun 10:01:16 AM 40.5617 -86.4011 285° West 335 386 38,000  Level Chicago Center
Sun 10:02:17 AM 40.5858 -86.5208 285° West 338 389 38,000  Level Chicago Center
Sun 10:03:19 AM 40.6108 -86.6417 285° West 342 394 38,000  Level Chicago Center
Sun 10:04:20 AM 40.6397 -86.7908 284° West 344 396 38,000  Level Chicago Center
Sun 10:05:22 AM 40.6639 -86.9108 285° West 343 395 38,000  Level Chicago Center
Sun 10:06:23 AM 40.6881 -87.0347 284° West 351 404 38,000  Level Chicago Center
Sun 10:07:25 AM 40.7128 -87.1581 285° West 350 403 38,000  Level Chicago Center
Sun 10:08:26 AM 40.7367 -87.2831 284° West 352 405 38,000  Level Chicago Center
Sun 10:09:28 AM 40.7614 -87.4075 285° West 353 406 38,000  Level Chicago Center
Sun 10:10:29 AM 40.7856 -87.5344 284° West 357 411 38,000  Level Chicago Center
Sun 10:11:31 AM 40.8108 -87.6622 285° West 360 414 38,000  Level Chicago Center
Sun 10:12:32 AM 40.8403 -87.8200 284° West 368 423 38,000  Level Chicago Center
Sun 10:13:34 AM 40.8647 -87.9528 284° West 370 426 38,000  Level Chicago Center
Sun 10:14:35 AM 40.8911 -88.0875 285° West 378 435 38,000  Level Chicago Center
Sun 10:15:37 AM 40.9164 -88.2236 284° West 382 440 38,000  Level Chicago Center
Sun 10:16:38 AM 40.9425 -88.3628 284° West 388 447 38,000  Level Chicago Center
Sun 10:17:40 AM 40.9669 -88.5031 283° West 391 450 38,000  Level Chicago Center
Sun 10:18:41 AM 40.9936 -88.6425 284° West 391 450 38,000  Level Chicago Center
Sun 10:19:43 AM 41.0172 -88.7808 283° West 386 444 38,000  Level Chicago Center
Sun 10:20:44 AM 41.0439 -88.9269 284° West 400 460 38,000  Level Chicago Center
Sun 10:21:46 AM 41.0753 -89.1014 283° West 405 466 38,000  Level Chicago Center
Sun 10:22:48 AM 41.0975 -89.2286 283° West 408 470 38,000  Level Chicago Center
Sun 10:23:49 AM 41.1233 -89.3736 283° West 408 470 38,000  Level Chicago Center
Sun 10:24:51 AM 41.1536 -89.5467 283° West 405 466 38,000  Level Chicago Center
Sun 10:25:52 AM 41.1692 -89.6950 278° West 409 471 38,000  Level Chicago Center
Sun 10:26:54 AM 41.1733 -89.8425 272° West 405 466 38,000  Level Chicago Center
Sun 10:27:55 AM 41.1767 -89.9917 272° West 408 470 38,000  Level Chicago Center
Sun 10:28:57 AM 41.1800 -90.1408 272° West 408 470 38,000  Level Chicago Center
Sun 10:29:58 AM 41.1817 -90.2908 271° West 410 472 38,000  Level Chicago Center
Sun 10:31:00 AM 41.1856 -90.4714 272° West 411 473 38,000  Level Chicago Center
Sun 10:32:01 AM 41.1881 -90.6211 271° West 408 470 38,000  Level Chicago Center
Sun 10:33:03 AM 41.1911 -90.7692 272° West 404 465 38,000  Level Chicago Center
Sun 10:34:04 AM 41.1925 -90.9169 271° West 401 461 38,000  Level Chicago Center
Sun 10:35:06 AM 41.1956 -91.0639 272° West 400 460 38,000  Level Chicago Center
Sun 10:36:07 AM 41.1969 -91.2081 271° West 393 452 38,000  Level Chicago Center
Sun 10:37:09 AM 41.1989 -91.3533 271° West 393 452 38,000  Level Chicago Center
Sun 10:38:10 AM 41.1997 -91.4997 270° West 396 456 38,000  Level Chicago Center
Sun 10:39:12 AM 41.2014 -91.6756 271° West 398 458 38,000  Level Chicago Center
Sun 10:40:13 AM 41.2028 -91.8114 271° West 402 463 38,000  Level Chicago Center
Sun 10:41:15 AM 41.2028 -91.9575 270° West 401 461 38,000  Level Chicago Center
Sun 10:42:16 AM 41.2047 -92.1031 271° West 400 460 38,000  Level Chicago Center
Sun 10:43:18 AM 41.2033 -92.2756 269° West 395 455 38,000  Level Chicago Center
Sun 10:44:19 AM 41.2047 -92.4186 271° West 392 451 38,000  Level Chicago Center
Sun 10:45:21 AM 41.2044 -92.5631 270° West 394 453 38,000  Level Chicago Center
Sun 10:46:24 AM 41.2053 -92.7089 270° West 395 455 38,000  Level Minneapolis Center
Sun 10:47:25 AM 41.2053 -92.8544 270° West 398 458 38,000  Level Minneapolis Center
Sun 10:48:27 AM 41.2042 -93.0306 270° West 400 460 38,000  Level Minneapolis Center
Sun 10:49:28 AM 41.2036 -93.1803 270° West 406 467 38,000  Level Minneapolis Center
Sun 10:50:29 AM 41.2033 -93.3272 270° West 405 466 38,000  Level Minneapolis Center
Sun 10:51:31 AM 41.2003 -93.4739 268° West 403 464 38,000  Level Minneapolis Center
Sun 10:52:32 AM 41.2014 -93.6136 271° West 391 450 38,000  Level Minneapolis Center
Sun 10:53:33 AM 41.2011 -93.7589 270° West 395 455 38,000  Level Minneapolis Center
Sun 10:54:35 AM 41.1983 -93.9064 269° West 401 461 38,000 49 Level Minneapolis Center
Sun 10:55:36 AM 41.1975 -94.0825 270° West 402 463 38,100  Climbing Minneapolis Center
Sun 10:56:37 AM 41.1958 -94.2272 269° West 399 459 38,000 -49 Descending Minneapolis Center
Sun 10:57:38 AM 41.1939 -94.3564 269° West 398 458 38,000  Level Minneapolis Center
Sun 10:58:40 AM 41.1906 -94.5372 269° West 407 468 38,000 49 Level Minneapolis Center
Sun 10:59:41 AM 41.1883 -94.6897 269° West 412 474 38,100  Climbing Minneapolis Center
Sun 11:00:42 AM 41.1847 -94.8422 268° West 413 475 38,000 -49 Descending Minneapolis Center
Sun 11:01:44 AM 41.1819 -94.9933 269° West 410 472 38,000  Level Minneapolis Center
Sun 11:02:45 AM 41.1781 -95.1436 268° West 408 470 38,000  Level Minneapolis Center
Sun 11:03:46 AM 41.1742 -95.2933 268° West 405 466 38,000  Level Minneapolis Center
Sun 11:04:47 AM 41.1708 -95.4433 268° West 404 465 38,000  Level Minneapolis Center
Sun 11:05:49 AM 41.1658 -95.5956 268° West 409 471 38,000  Level Minneapolis Center
Sun 11:06:50 AM 41.1617 -95.7708 268° West 410 472 38,000  Level Minneapolis Center
Sun 11:07:51 AM 41.1586 -95.9197 268° West 406 467 38,000  Level Minneapolis Center
Sun 11:08:52 AM 41.1542 -96.0658 268° West 400 460 38,000 -49 Level Minneapolis Center
Sun 11:09:54 AM 41.1494 -96.2106 268° West 396 456 37,900  Descending Minneapolis Center
Sun 11:10:55 AM 41.1453 -96.3422 268° West 397 457 38,000 49 Climbing Minneapolis Center
Sun 11:11:56 AM 41.1400 -96.4875 267° West 394 453 38,000  Level Minneapolis Center
Sun 11:12:58 AM 41.1350 -96.6608 268° West 391 450 38,000  Level Minneapolis Center
Sun 11:13:59 AM 41.1289 -96.8050 267° West 391 450 38,000  Level Minneapolis Center
Sun 11:15:00 AM 41.1236 -96.9497 267° West 393 452 38,000  Level Minneapolis Center
Sun 11:16:01 AM 41.1178 -97.0969 267° West 398 458 38,000  Level Minneapolis Center
Sun 11:17:03 AM 41.1114 -97.2436 267° West 399 459 38,000  Level Minneapolis Center
Sun 11:18:04 AM 41.1056 -97.4069 267° West 401 461 38,000  Level Minneapolis Center
Sun 11:19:05 AM 41.0986 -97.5564 267° West 404 465 38,000  Level Minneapolis Center
Sun 11:20:06 AM 41.0925 -97.7069 267° West 407 468 38,000  Level Minneapolis Center
Sun 11:21:08 AM 41.0858 -97.8581 267° West 410 472 38,000  Level Minneapolis Center
Sun 11:22:09 AM 41.0786 -98.0094 266° West 411 473 38,000  Level Minneapolis Center
Sun 11:23:10 AM 41.0719 -98.1600 267° West 409 471 38,000  Level Minneapolis Center
Sun 11:24:11 AM 41.0650 -98.3100 267° West 407 468 38,000  Level Minneapolis Center
Sun 11:25:12 AM 41.0483 -98.4711 262° West 406 467 38,000  Level Minneapolis Center
Sun 11:26:14 AM 41.0322 -98.6189 262° West 406 467 38,000  Level Minneapolis Center
Sun 11:27:15 AM 41.0153 -98.7650 261° West 404 465 38,000  Level Minneapolis Center
Sun 11:28:16 AM 40.9983 -98.9097 261° West 400 460 38,000  Level Minneapolis Center
Sun 11:29:17 AM 40.9783 -99.0506 259° West 393 452 38,000  Level Minneapolis Center
Sun 11:29:48 AM 40.9672 -99.1336 260° West 390 449 38,000  Level Denver Center
Sun 11:30:50 AM 40.9467 -99.2769 259° West 393 452 38,000  Level Denver Center
Sun 11:31:52 AM 40.9264 -99.4194 259° West 394 453 38,000  Level Denver Center
Sun 11:32:54 AM 40.9064 -99.5625 260° West 395 455 38,000  Level Denver Center
Sun 11:33:55 AM 40.8853 -99.7058 259° West 396 456 38,000  Level Denver Center
Sun 11:34:57 AM 40.8636 -99.8547 259° West 395 455 38,000  Level Denver Center
Sun 11:35:59 AM 40.8397 -100.0133 259° West 395 455 38,000  Level Denver Center
Sun 11:37:01 AM 40.8197 -100.1503 259° West 396 456 38,000  Level Denver Center
Sun 11:38:03 AM 40.8239 -100.3078 272° West 396 456 38,000  Level Denver Center
Sun 11:39:04 AM 40.9008 -100.4064 316° Northwest 412 474 38,000  Level Denver Center
Sun 11:40:06 AM 41.0250 -100.4800 336° Northwest 440 506 38,000  Level Denver Center
Sun 11:41:08 AM 41.1319 -100.5428 336° Northwest 443 510 38,000  Level Denver Center
Sun 11:42:10 AM 41.2567 -100.6164 336° Northwest 442 509 38,000  Level Denver Center
Sun 11:43:12 AM 41.3650 -100.6786 337° Northwest 443 510 38,000  Level Denver Center
Sun 11:44:14 AM 41.4894 -100.7539 336° Northwest 441 507 38,000  Level Denver Center
Sun 11:45:28 AM 41.5939 -100.8239 333° Northwest 442 509 38,000  Level Denver Center
Sun 11:46:42 AM 41.6522 -101.0178 292° West 397 457 38,000  Level Denver Center
Sun 11:47:44 AM 41.5842 -101.1506 236° Southwest 397 457 38,000  Level Denver Center
Sun 11:48:46 AM 41.4778 -101.1786 191° South 415 478 38,000  Level Denver Center
Sun 11:49:48 AM 41.3675 -101.1542 171° South 422 486 38,000  Level Denver Center
Sun 11:50:50 AM 41.2450 -101.1253 170° South 404 465 38,000  Level Denver Center
Sun 11:51:52 AM 41.1389 -101.1000 170° South 405 466 38,000  Level Denver Center
Sun 11:52:53 AM 41.0156 -101.0714 170° South 405 466 38,000  Level Denver Center
Sun 11:54:07 AM 40.9131 -101.0769 182° South 389 448 38,000  Level Denver Center
Sun 11:55:09 AM 40.8353 -101.2083 232° Southwest 372 428 38,000  Level Denver Center
Sun 11:56:11 AM 40.8739 -101.3528 290° West 391 450 38,000  Level Denver Center
Sun 11:57:13 AM 40.9519 -101.4519 316° Northwest 405 466 38,000  Level Denver Center
Sun 11:58:15 AM 41.0281 -101.5531 315° West 404 465 38,000  Level Denver Center
Sun 11:59:17 AM 41.1189 -101.6678 316° Northwest 404 465 38,000  Level Denver Center
Sun 12:00:19 PM 41.1958 -101.7692 315° West 406 467 38,000  Level Denver Center
Sun 12:01:20 PM 41.2867 -101.8900 315° West 412 474 38,000  Level Denver Center
Sun 12:02:22 PM 41.3644 -101.9919 315° West 412 474 38,000  Level Denver Center
Sun 12:03:24 PM 41.4547 -102.1119 315° West 409 471 38,000  Level Denver Center
Sun 12:04:26 PM 41.5333 -102.2133 316° Northwest 409 471 38,000  Level Denver Center
Sun 12:05:28 PM 41.6067 -102.3142 314° West 398 458 38,000  Level Denver Center
Sun 12:06:29 PM 41.6364 -102.4633 285° West 383 441 38,000  Level Denver Center
Sun 12:07:31 PM 41.5794 -102.5675 234° Southwest 366 421 38,000  Level Denver Center
Sun 12:08:33 PM 41.4603 -102.6136 196° South 404 465 38,000  Level Denver Center
Sun 12:09:35 PM 41.3550 -102.6428 192° South 402 463 38,000  Level Denver Center
Sun 12:10:36 PM 41.2339 -102.6847 195° South 403 464 38,000  Level Denver Center
Sun 12:11:38 PM 41.1511 -102.7742 219° Southwest 389 448 38,000  Level Denver Center
Sun 12:12:40 PM 41.0603 -102.8781 221° Southwest 388 447 38,000 -48 Level Denver Center
Sun 12:13:42 PM 40.9825 -102.9672 221° Southwest 387 445 37,900 -484 Descending Denver Center
Sun 12:14:44 PM 40.9017 -103.0600 221° Southwest 377 434 37,000 -919 Descending Denver Center
Sun 12:15:46 PM 40.8217 -103.1514 221° Southwest 377 434 36,000 -1,065 Descending Denver Center
Sun 12:16:48 PM 40.7397 -103.2447 221° Southwest 383 441 34,800 -1,756 Descending Denver Center
Sun 12:17:49 PM 40.6672 -103.3464 227° Southwest 380 437 32,400 -2,439 Descending Denver Center
Sun 12:18:51 PM 40.6664 -103.4950 270° West 354 407 29,800 -2,371 Descending Denver Center
Sun 12:19:53 PM 40.6642 -103.6183 269° West 339 390 27,500 -2,323 Descending Denver Center
Sun 12:20:55 PM 40.6097 -103.7189 235° Southwest 341 392 25,000 -2,516 Descending Denver Center
Sun 12:21:57 PM 40.5119 -103.7619 199° South 364 419 22,300 -2,661 Descending Denver Center
Sun 12:22:59 PM 40.4078 -103.7933 193° South 384 442 19,500 -2,565 Descending Denver Center
Sun 12:24:01 PM 40.2989 -103.8225 192° South 370 426 17,000 -1,403 Descending Denver Center
Sun 12:25:03 PM 40.2142 -103.8494 194° South 316 364 16,600 -829 Descending Denver Center
Sun 12:26:04 PM 40.1678 -103.9253 231° Southwest 250 288 15,300 -1,024 Descending Denver Center
Sun 12:27:06 PM 40.1456 -103.9981 248° West 206 237 14,500 -871 Descending Denver Center
Sun 12:28:08 PM 40.1367 -104.0686 261° West 194 223 13,500 -871 Descending Denver Center
Sun 12:29:10 PM 40.1275 -104.1367 260° West 178 205 12,700 -1,065 Descending Denver Center
Sun 12:30:12 PM 40.0833 -104.1553 198° South 212 244 11,300 -823 Descending Denver Center
Sun 12:31:14 PM 40.0208 -104.1214 157° South 239 275 11,000 -145 Descending Denver Center
Sun 12:32:16 PM 39.9519 -104.1050 170° South 232 267 11,000 -48 Level Denver Center
Sun 12:33:18 PM 39.9119 -104.1383 213° Southwest 177 204 10,900 -677 Descending Denver Center
Sun 12:34:20 PM 39.8856 -104.1878 235° Southwest 166 191 9,600 -871 Descending Denver Center
Sun 12:35:22 PM 39.8736 -104.2494 256° West 161 185 9,100 -242 Descending Denver Center
Sun 12:36:24 PM 39.8747 -104.3031 272° West 150 173 9,100 -49 Level Denver Center
Sun 12:37:25 PM 39.8744 -104.3619 270° West 162 186 9,000 -372 Descending Denver Center
Sun 12:38:17 PM 39.8833 -104.4167 282° West 150 173 8,400 -804 Descending Denver TRACON
Sun 12:39:17 PM 39.8833 -104.4667 270° West 152 175 7,500 -900 Descending Denver TRACON

Login

Don't have an account? Register now (free) for customized features, flight alerts, and more!